Pagrindinis puslapis
METAR-TAF:

METAR-TAF

Oro uostai :

Vršacas, Serbija

platuma: 45-09N, ilguma: 021-19E, Aukštis: 83 m

Dabartinis oras

Ataskaita buvo paskelbta 37 minutes, ne 19:30 UTC
Vėjas 3 kt iš Vakarų/Šiaurės Vakarų
Temperatūra 1°C
Drėgmė 93%
Slėgis 1046 hPa
Matomumas: 7000 m

METAR: LYVR 201930Z AUTO 30003KT 7000 BKN014/// OVC022/// 01/M00 Q1046

Laikas: 21:07 (20:07 UTC)

Prognozė

Ataskaita buvo paskelbta 3 valandos ir 7 minutes, ne 17:00 UTC
Prognozė galioja nuo 20 metu 18 UTC su 21 metu 18 UTC
Vėjas 5 kt iš Šiaurės/Šiaurės Vakarų
Matomumas: 3000 m
Išsisklaidę debesys ne aukštis 1000 ft
rūkana
Tapsmas
nuo 20 metu 16 UTC su 20 metu 18 UTC
Matomumas: 1500 m
Su prošvaistėmis ne aukštis 300 ft
Tapsmas
nuo 21 metu 09 UTC su 21 metu 11 UTC
Matomumas: 6000 m
Išsisklaidę debesys ne aukštis 600 ft
Su prošvaistėmis ne aukštis 1500 ft

TAF: LYVR 201700Z 2018/2118 33005KT 3000 BR SCT010 TX02/2113Z TNM03/2106Z BECMG 2016/2018 1500 BKN003 BECMG 2109/2111 6000 NSW SCT006 BKN015

Orai ataskaitas ir orų prognozės (METAR, TAF).

turimą stotys yra geltonos ir raudonos taškus žemėlapyje.

Perkelti pele per norėdami pamatyti stoties vardą.

Tada spustelėkite, norėdami matyti oro stebėjimo ir prognozės.

Norėdami pakeisti žemėlapį: spustelėkite ant žalios mygtukų su juodo kryžiaus žemyn,; žalią mygtuką su brūkšneliu, jei norite nutolinti; arba žalių rodyklių gretimoms žemėlapius.


METAR-TAF: